sensor_id;sensor_type;location;lat;lon;timestamp;temperature;humidity
32753;DHT22;19121;52.428;10.816;2023-06-10T00:01:38;24.90;45.30
32753;DHT22;19121;52.428;10.816;2023-06-10T00:04:04;24.90;45.30
32753;DHT22;19121;52.428;10.816;2023-06-10T00:06:30;24.90;45.30
32753;DHT22;19121;52.428;10.816;2023-06-10T00:09:00;24.90;45.30
32753;DHT22;19121;52.428;10.816;2023-06-10T00:11:26;24.90;45.30
32753;DHT22;19121;52.428;10.816;2023-06-10T00:13:51;24.80;45.30
32753;DHT22;19121;52.428;10.816;2023-06-10T00:16:17;24.80;45.30
32753;DHT22;19121;52.428;10.816;2023-06-10T00:18:43;24.90;45.40
32753;DHT22;19121;52.428;10.816;2023-06-10T00:21:09;24.80;45.30
32753;DHT22;19121;52.428;10.816;2023-06-10T00:23:34;24.80;45.30
32753;DHT22;19121;52.428;10.816;2023-06-10T00:26:03;24.80;45.30
32753;DHT22;19121;52.428;10.816;2023-06-10T00:28:29;24.80;45.30
32753;DHT22;19121;52.428;10.816;2023-06-10T00:30:55;24.80;45.30
32753;DHT22;19121;52.428;10.816;2023-06-10T00:33:21;24.80;45.30
32753;DHT22;19121;52.428;10.816;2023-06-10T00:35:46;24.80;45.30
32753;DHT22;19121;52.428;10.816;2023-06-10T00:38:13;24.80;45.30
32753;DHT22;19121;52.428;10.816;2023-06-10T00:40:39;24.80;45.30
32753;DHT22;19121;52.428;10.816;2023-06-10T00:43:06;24.80;45.30
32753;DHT22;19121;52.428;10.816;2023-06-10T00:45:31;24.70;45.30
32753;DHT22;19121;52.428;10.816;2023-06-10T00:47:57;24.70;45.30
32753;DHT22;19121;52.428;10.816;2023-06-10T00:50:23;24.70;45.30
32753;DHT22;19121;52.428;10.816;2023-06-10T00:52:48;24.70;45.30
32753;DHT22;19121;52.428;10.816;2023-06-10T00:55:18;24.70;45.30
32753;DHT22;19121;52.428;10.816;2023-06-10T00:57:44;24.70;45.90
32753;DHT22;19121;52.428;10.816;2023-06-10T01:00:11;24.70;45.40
32753;DHT22;19121;52.428;10.816;2023-06-10T01:02:37;24.70;45.40
32753;DHT22;19121;52.428;10.816;2023-06-10T01:05:03;24.70;45.30
32753;DHT22;19121;52.428;10.816;2023-06-10T01:10:28;24.70;45.40
32753;DHT22;19121;52.428;10.816;2023-06-10T01:13:07;24.70;45.30
32753;DHT22;19121;52.428;10.816;2023-06-10T01:15:37;24.70;45.40
32753;DHT22;19121;52.428;10.816;2023-06-10T01:18:07;24.70;45.40
32753;DHT22;19121;52.428;10.816;2023-06-10T01:20:35;24.60;45.30
32753;DHT22;19121;52.428;10.816;2023-06-10T01:23:02;24.60;45.30
32753;DHT22;19121;52.428;10.816;2023-06-10T01:25:28;24.60;45.30
32753;DHT22;19121;52.428;10.816;2023-06-10T01:30:27;24.60;45.40
32753;DHT22;19121;52.428;10.816;2023-06-10T01:32:55;24.60;45.30
32753;DHT22;19121;52.428;10.816;2023-06-10T01:35:21;24.60;45.30
32753;DHT22;19121;52.428;10.816;2023-06-10T01:37:49;24.60;45.30
32753;DHT22;19121;52.428;10.816;2023-06-10T01:40:18;24.60;45.40
32753;DHT22;19121;52.428;10.816;2023-06-10T01:42:43;24.60;45.40
32753;DHT22;19121;52.428;10.816;2023-06-10T01:45:09;24.60;45.40
32753;DHT22;19121;52.428;10.816;2023-06-10T01:47:34;24.60;45.40
32753;DHT22;19121;52.428;10.816;2023-06-10T01:50:00;24.50;45.40
32753;DHT22;19121;52.428;10.816;2023-06-10T01:52:26;24.60;45.40
32753;DHT22;19121;52.428;10.816;2023-06-10T01:54:51;24.50;45.40
32753;DHT22;19121;52.428;10.816;2023-06-10T01:57:17;24.50;45.40
32753;DHT22;19121;52.428;10.816;2023-06-10T01:59:42;24.50;45.40
32753;DHT22;19121;52.428;10.816;2023-06-10T02:02:09;24.50;45.40
32753;DHT22;19121;52.428;10.816;2023-06-10T02:04:35;24.50;45.40
32753;DHT22;19121;52.428;10.816;2023-06-10T02:07:00;24.50;45.40
32753;DHT22;19121;52.428;10.816;2023-06-10T02:09:29;24.50;45.40
32753;DHT22;19121;52.428;10.816;2023-06-10T02:11:54;24.50;45.40
32753;DHT22;19121;52.428;10.816;2023-06-10T02:14:20;24.50;45.40
32753;DHT22;19121;52.428;10.816;2023-06-10T02:16:46;24.40;45.40
32753;DHT22;19121;52.428;10.816;2023-06-10T02:19:12;24.50;45.40
32753;DHT22;19121;52.428;10.816;2023-06-10T02:21:37;24.50;45.40
32753;DHT22;19121;52.428;10.816;2023-06-10T02:24:03;24.40;45.40
32753;DHT22;19121;52.428;10.816;2023-06-10T02:26:29;24.50;45.40
32753;DHT22;19121;52.428;10.816;2023-06-10T02:28:54;24.40;45.40
32753;DHT22;19121;52.428;10.816;2023-06-10T02:31:20;24.40;45.40
32753;DHT22;19121;52.428;10.816;2023-06-10T02:33:45;24.40;45.50
32753;DHT22;19121;52.428;10.816;2023-06-10T02:36:11;24.40;45.40
32753;DHT22;19121;52.428;10.816;2023-06-10T02:38:39;24.40;45.50
32753;DHT22;19121;52.428;10.816;2023-06-10T02:41:05;24.40;45.50
32753;DHT22;19121;52.428;10.816;2023-06-10T02:43:30;24.40;45.50
32753;DHT22;19121;52.428;10.816;2023-06-10T02:45:56;24.40;45.50
32753;DHT22;19121;52.428;10.816;2023-06-10T02:48:23;24.40;45.50
32753;DHT22;19121;52.428;10.816;2023-06-10T02:50:48;24.40;45.50
32753;DHT22;19121;52.428;10.816;2023-06-10T02:53:14;24.30;45.40
32753;DHT22;19121;52.428;10.816;2023-06-10T02:55:40;24.40;45.50
32753;DHT22;19121;52.428;10.816;2023-06-10T02:58:06;24.40;45.50
32753;DHT22;19121;52.428;10.816;2023-06-10T03:00:32;24.30;45.40
32753;DHT22;19121;52.428;10.816;2023-06-10T03:02:58;24.30;45.50
32753;DHT22;19121;52.428;10.816;2023-06-10T03:05:28;24.30;45.50
32753;DHT22;19121;52.428;10.816;2023-06-10T03:07:53;24.30;45.50
32753;DHT22;19121;52.428;10.816;2023-06-10T03:10:19;24.30;45.50
32753;DHT22;19121;52.428;10.816;2023-06-10T03:12:44;24.30;45.50
32753;DHT22;19121;52.428;10.816;2023-06-10T03:15:10;24.30;45.50
32753;DHT22;19121;52.428;10.816;2023-06-10T03:17:35;24.30;45.50
32753;DHT22;19121;52.428;10.816;2023-06-10T03:20:01;24.30;45.50
32753;DHT22;19121;52.428;10.816;2023-06-10T03:22:26;24.30;45.50
32753;DHT22;19121;52.428;10.816;2023-06-10T03:24:52;24.30;45.60
32753;DHT22;19121;52.428;10.816;2023-06-10T03:27:18;24.30;45.50
32753;DHT22;19121;52.428;10.816;2023-06-10T03:29:44;24.20;45.50
32753;DHT22;19121;52.428;10.816;2023-06-10T03:32:09;24.20;45.50
32753;DHT22;19121;52.428;10.816;2023-06-10T03:34:35;24.20;45.60
32753;DHT22;19121;52.428;10.816;2023-06-10T03:37:00;24.20;45.50
32753;DHT22;19121;52.428;10.816;2023-06-10T03:39:26;24.20;45.50
32753;DHT22;19121;52.428;10.816;2023-06-10T03:41:54;24.20;45.50
32753;DHT22;19121;52.428;10.816;2023-06-10T03:44:19;24.20;45.50
32753;DHT22;19121;52.428;10.816;2023-06-10T03:46:45;24.20;45.50
32753;DHT22;19121;52.428;10.816;2023-06-10T03:49:10;24.20;45.50
32753;DHT22;19121;52.428;10.816;2023-06-10T03:51:36;24.20;45.50
32753;DHT22;19121;52.428;10.816;2023-06-10T03:54:02;24.20;45.50
32753;DHT22;19121;52.428;10.816;2023-06-10T03:56:28;24.20;45.50
32753;DHT22;19121;52.428;10.816;2023-06-10T03:58:54;24.20;45.50
32753;DHT22;19121;52.428;10.816;2023-06-10T04:01:20;24.20;45.50
32753;DHT22;19121;52.428;10.816;2023-06-10T04:03:46;24.10;45.50
32753;DHT22;19121;52.428;10.816;2023-06-10T04:06:13;24.20;45.50
32753;DHT22;19121;52.428;10.816;2023-06-10T04:08:39;24.20;45.50
32753;DHT22;19121;52.428;10.816;2023-06-10T04:11:04;24.20;45.50
32753;DHT22;19121;52.428;10.816;2023-06-10T04:13:30;24.20;45.50
32753;DHT22;19121;52.428;10.816;2023-06-10T04:15:55;24.10;45.40
32753;DHT22;19121;52.428;10.816;2023-06-10T04:18:20;24.20;45.50
32753;DHT22;19121;52.428;10.816;2023-06-10T04:20:47;24.20;45.40
32753;DHT22;19121;52.428;10.816;2023-06-10T04:23:12;24.20;45.40
32753;DHT22;19121;52.428;10.816;2023-06-10T04:25:38;24.20;45.40
32753;DHT22;19121;52.428;10.816;2023-06-10T04:28:03;24.20;45.40
32753;DHT22;19121;52.428;10.816;2023-06-10T04:30:29;24.20;45.40
32753;DHT22;19121;52.428;10.816;2023-06-10T04:32:55;24.20;45.40
32753;DHT22;19121;52.428;10.816;2023-06-10T04:35:21;24.20;45.40
32753;DHT22;19121;52.428;10.816;2023-06-10T04:37:47;24.20;45.50
32753;DHT22;19121;52.428;10.816;2023-06-10T04:40:12;24.20;45.40
32753;DHT22;19121;52.428;10.816;2023-06-10T04:42:38;24.20;45.50
32753;DHT22;19121;52.428;10.816;2023-06-10T04:45:03;24.20;45.40
32753;DHT22;19121;52.428;10.816;2023-06-10T04:47:29;24.20;45.50
32753;DHT22;19121;52.428;10.816;2023-06-10T04:49:59;24.20;45.50
32753;DHT22;19121;52.428;10.816;2023-06-10T04:52:24;24.20;45.40
32753;DHT22;19121;52.428;10.816;2023-06-10T04:54:49;24.20;45.40
32753;DHT22;19121;52.428;10.816;2023-06-10T04:57:15;24.20;45.40
32753;DHT22;19121;52.428;10.816;2023-06-10T04:59:40;24.30;45.40
32753;DHT22;19121;52.428;10.816;2023-06-10T05:02:06;24.30;45.40
32753;DHT22;19121;52.428;10.816;2023-06-10T05:04:31;24.30;45.40
32753;DHT22;19121;52.428;10.816;2023-06-10T05:06:56;24.30;45.40
32753;DHT22;19121;52.428;10.816;2023-06-10T05:09:22;24.30;45.30
32753;DHT22;19121;52.428;10.816;2023-06-10T05:11:47;24.40;45.30
32753;DHT22;19121;52.428;10.816;2023-06-10T05:14:13;24.40;45.30
32753;DHT22;19121;52.428;10.816;2023-06-10T05:16:39;24.40;45.30
32753;DHT22;19121;52.428;10.816;2023-06-10T05:19:05;24.40;45.20
32753;DHT22;19121;52.428;10.816;2023-06-10T05:21:30;24.40;45.10
32753;DHT22;19121;52.428;10.816;2023-06-10T05:23:56;24.40;45.10
32753;DHT22;19121;52.428;10.816;2023-06-10T05:26:21;24.50;45.10
32753;DHT22;19121;52.428;10.816;2023-06-10T05:28:47;24.50;45.10
32753;DHT22;19121;52.428;10.816;2023-06-10T05:31:12;24.50;45.10
32753;DHT22;19121;52.428;10.816;2023-06-10T05:33:38;24.50;45.00
32753;DHT22;19121;52.428;10.816;2023-06-10T05:36:04;24.50;45.00
32753;DHT22;19121;52.428;10.816;2023-06-10T05:38:29;24.50;44.90
32753;DHT22;19121;52.428;10.816;2023-06-10T05:40:55;24.50;44.90
32753;DHT22;19121;52.428;10.816;2023-06-10T05:43:22;24.60;44.90
32753;DHT22;19121;52.428;10.816;2023-06-10T05:45:47;24.60;44.90
32753;DHT22;19121;52.428;10.816;2023-06-10T05:48:13;24.60;44.90
32753;DHT22;19121;52.428;10.816;2023-06-10T05:50:38;24.60;44.90
32753;DHT22;19121;52.428;10.816;2023-06-10T05:53:05;24.60;44.80
32753;DHT22;19121;52.428;10.816;2023-06-10T05:55:32;24.60;44.80
32753;DHT22;19121;52.428;10.816;2023-06-10T05:57:58;24.70;44.80
32753;DHT22;19121;52.428;10.816;2023-06-10T06:00:23;24.60;44.70
32753;DHT22;19121;52.428;10.816;2023-06-10T06:02:49;24.70;44.80
32753;DHT22;19121;52.428;10.816;2023-06-10T06:05:16;24.70;44.80
32753;DHT22;19121;52.428;10.816;2023-06-10T06:07:41;24.70;44.70
32753;DHT22;19121;52.428;10.816;2023-06-10T06:10:07;24.80;44.70
32753;DHT22;19121;52.428;10.816;2023-06-10T06:12:32;24.80;44.70
32753;DHT22;19121;52.428;10.816;2023-06-10T06:14:57;24.80;44.70
32753;DHT22;19121;52.428;10.816;2023-06-10T06:17:23;24.80;44.70
32753;DHT22;19121;52.428;10.816;2023-06-10T06:19:48;24.80;44.60
32753;DHT22;19121;52.428;10.816;2023-06-10T06:22:14;24.90;44.60
32753;DHT22;19121;52.428;10.816;2023-06-10T06:24:40;24.90;44.60
32753;DHT22;19121;52.428;10.816;2023-06-10T06:27:05;24.90;44.60
32753;DHT22;19121;52.428;10.816;2023-06-10T06:29:31;24.90;44.50
32753;DHT22;19121;52.428;10.816;2023-06-10T06:31:56;25.00;44.50
32753;DHT22;19121;52.428;10.816;2023-06-10T06:34:22;25.00;44.50
32753;DHT22;19121;52.428;10.816;2023-06-10T06:36:47;25.00;44.50
32753;DHT22;19121;52.428;10.816;2023-06-10T06:39:12;25.00;44.50
32753;DHT22;19121;52.428;10.816;2023-06-10T06:41:38;25.00;44.40
32753;DHT22;19121;52.428;10.816;2023-06-10T06:44:04;25.10;44.40
32753;DHT22;19121;52.428;10.816;2023-06-10T06:46:29;25.10;44.40
32753;DHT22;19121;52.428;10.816;2023-06-10T06:48:55;25.10;44.40
32753;DHT22;19121;52.428;10.816;2023-06-10T06:51:20;25.10;44.30
32753;DHT22;19121;52.428;10.816;2023-06-10T06:53:46;25.10;44.30
32753;DHT22;19121;52.428;10.816;2023-06-10T06:56:11;25.10;44.30
32753;DHT22;19121;52.428;10.816;2023-06-10T06:58:37;25.10;44.20
32753;DHT22;19121;52.428;10.816;2023-06-10T07:01:02;25.10;44.20
32753;DHT22;19121;52.428;10.816;2023-06-10T07:03:28;25.10;44.20
32753;DHT22;19121;52.428;10.816;2023-06-10T07:05:53;25.20;44.30
32753;DHT22;19121;52.428;10.816;2023-06-10T07:08:19;25.20;44.30
32753;DHT22;19121;52.428;10.816;2023-06-10T07:10:44;25.20;44.30
32753;DHT22;19121;52.428;10.816;2023-06-10T07:13:10;25.20;44.30
32753;DHT22;19121;52.428;10.816;2023-06-10T07:15:35;25.30;44.40
32753;DHT22;19121;52.428;10.816;2023-06-10T07:18:01;25.30;44.40
32753;DHT22;19121;52.428;10.816;2023-06-10T07:20:26;25.30;44.30
32753;DHT22;19121;52.428;10.816;2023-06-10T07:22:51;25.30;44.40
32753;DHT22;19121;52.428;10.816;2023-06-10T07:25:17;25.30;44.30
32753;DHT22;19121;52.428;10.816;2023-06-10T07:27:42;25.40;44.30
32753;DHT22;19121;52.428;10.816;2023-06-10T07:30:08;25.40;44.30
32753;DHT22;19121;52.428;10.816;2023-06-10T07:32:34;25.40;44.30
32753;DHT22;19121;52.428;10.816;2023-06-10T07:34:59;25.40;44.20
32753;DHT22;19121;52.428;10.816;2023-06-10T07:37:25;25.40;44.20
32753;DHT22;19121;52.428;10.816;2023-06-10T07:39:50;25.40;44.20
32753;DHT22;19121;52.428;10.816;2023-06-10T07:42:16;25.50;44.20
32753;DHT22;19121;52.428;10.816;2023-06-10T07:44:41;25.50;44.20
32753;DHT22;19121;52.428;10.816;2023-06-10T07:47:07;25.50;44.20
32753;DHT22;19121;52.428;10.816;2023-06-10T07:49:32;25.60;44.20
32753;DHT22;19121;52.428;10.816;2023-06-10T07:51:58;25.60;44.20
32753;DHT22;19121;52.428;10.816;2023-06-10T07:54:23;25.60;44.20
32753;DHT22;19121;52.428;10.816;2023-06-10T07:56:48;25.70;44.20
32753;DHT22;19121;52.428;10.816;2023-06-10T07:59:14;25.60;44.10
32753;DHT22;19121;52.428;10.816;2023-06-10T08:01:40;25.70;44.20
32753;DHT22;19121;52.428;10.816;2023-06-10T08:04:05;25.70;44.20
32753;DHT22;19121;52.428;10.816;2023-06-10T08:06:31;25.70;44.10
32753;DHT22;19121;52.428;10.816;2023-06-10T08:08:56;25.70;44.10
32753;DHT22;19121;52.428;10.816;2023-06-10T08:11:22;25.80;44.10
32753;DHT22;19121;52.428;10.816;2023-06-10T08:13:47;25.80;44.10
32753;DHT22;19121;52.428;10.816;2023-06-10T08:16:14;25.80;44.10
32753;DHT22;19121;52.428;10.816;2023-06-10T08:18:40;25.80;44.00
32753;DHT22;19121;52.428;10.816;2023-06-10T08:21:06;25.90;44.10
32753;DHT22;19121;52.428;10.816;2023-06-10T08:23:31;25.90;44.00
32753;DHT22;19121;52.428;10.816;2023-06-10T08:25:57;25.90;44.10
32753;DHT22;19121;52.428;10.816;2023-06-10T08:28:23;26.00;44.10
32753;DHT22;19121;52.428;10.816;2023-06-10T08:30:48;26.00;44.10
32753;DHT22;19121;52.428;10.816;2023-06-10T08:33:14;26.00;44.00
32753;DHT22;19121;52.428;10.816;2023-06-10T08:35:39;26.00;44.00
32753;DHT22;19121;52.428;10.816;2023-06-10T08:38:05;26.00;44.00
32753;DHT22;19121;52.428;10.816;2023-06-10T08:40:30;26.00;44.00
32753;DHT22;19121;52.428;10.816;2023-06-10T08:45:24;26.10;44.00
32753;DHT22;19121;52.428;10.816;2023-06-10T08:47:53;26.10;43.90
32753;DHT22;19121;52.428;10.816;2023-06-10T08:50:19;26.10;43.90
32753;DHT22;19121;52.428;10.816;2023-06-10T08:52:44;26.20;43.90
32753;DHT22;19121;52.428;10.816;2023-06-10T08:55:21;26.20;43.90
32753;DHT22;19121;52.428;10.816;2023-06-10T08:57:51;26.20;43.90
32753;DHT22;19121;52.428;10.816;2023-06-10T09:00:18;26.20;43.80
32753;DHT22;19121;52.428;10.816;2023-06-10T09:02:43;26.20;43.90
32753;DHT22;19121;52.428;10.816;2023-06-10T09:05:09;26.30;43.90
32753;DHT22;19121;52.428;10.816;2023-06-10T09:07:35;26.30;43.90
32753;DHT22;19121;52.428;10.816;2023-06-10T09:10:01;26.20;43.90
32753;DHT22;19121;52.428;10.816;2023-06-10T09:12:29;26.30;43.90
32753;DHT22;19121;52.428;10.816;2023-06-10T09:14:54;26.30;44.00
32753;DHT22;19121;52.428;10.816;2023-06-10T09:17:20;26.30;43.90
32753;DHT22;19121;52.428;10.816;2023-06-10T09:19:45;26.30;44.00
32753;DHT22;19121;52.428;10.816;2023-06-10T09:22:11;26.30;44.00
32753;DHT22;19121;52.428;10.816;2023-06-10T09:24:37;26.30;44.00
32753;DHT22;19121;52.428;10.816;2023-06-10T09:27:06;26.30;44.00
32753;DHT22;19121;52.428;10.816;2023-06-10T09:29:45;26.30;44.10
32753;DHT22;19121;52.428;10.816;2023-06-10T09:32:10;26.30;44.00
32753;DHT22;19121;52.428;10.816;2023-06-10T09:34:36;26.30;44.10
32753;DHT22;19121;52.428;10.816;2023-06-10T09:37:01;26.30;44.00
32753;DHT22;19121;52.428;10.816;2023-06-10T09:39:27;26.30;44.10
32753;DHT22;19121;52.428;10.816;2023-06-10T09:41:52;26.40;44.10
32753;DHT22;19121;52.428;10.816;2023-06-10T09:44:19;26.40;44.10
32753;DHT22;19121;52.428;10.816;2023-06-10T09:46:49;26.40;44.10
32753;DHT22;19121;52.428;10.816;2023-06-10T09:49:16;26.40;44.10
32753;DHT22;19121;52.428;10.816;2023-06-10T09:51:48;26.40;44.10
32753;DHT22;19121;52.428;10.816;2023-06-10T09:54:14;26.40;44.10
32753;DHT22;19121;52.428;10.816;2023-06-10T09:56:40;26.40;44.10
32753;DHT22;19121;52.428;10.816;2023-06-10T09:59:07;26.40;44.10
32753;DHT22;19121;52.428;10.816;2023-06-10T10:01:33;26.40;44.10
32753;DHT22;19121;52.428;10.816;2023-06-10T10:03:59;26.40;44.20
32753;DHT22;19121;52.428;10.816;2023-06-10T10:06:24;26.50;44.20
32753;DHT22;19121;52.428;10.816;2023-06-10T10:08:50;26.50;44.20
32753;DHT22;19121;52.428;10.816;2023-06-10T10:11:17;26.50;44.20
32753;DHT22;19121;52.428;10.816;2023-06-10T10:13:42;26.50;44.20
32753;DHT22;19121;52.428;10.816;2023-06-10T10:16:11;26.50;44.20
32753;DHT22;19121;52.428;10.816;2023-06-10T10:18:38;26.50;44.20
32753;DHT22;19121;52.428;10.816;2023-06-10T10:21:05;26.50;44.20
32753;DHT22;19121;52.428;10.816;2023-06-10T10:23:32;26.50;44.30
32753;DHT22;19121;52.428;10.816;2023-06-10T10:26:00;26.50;44.30
32753;DHT22;19121;52.428;10.816;2023-06-10T10:28:28;26.50;44.30
32753;DHT22;19121;52.428;10.816;2023-06-10T10:30:59;26.50;44.40
32753;DHT22;19121;52.428;10.816;2023-06-10T10:33:40;26.50;44.40
32753;DHT22;19121;52.428;10.816;2023-06-10T10:36:06;26.60;44.40
32753;DHT22;19121;52.428;10.816;2023-06-10T10:38:32;26.60;44.40
32753;DHT22;19121;52.428;10.816;2023-06-10T10:40:58;26.60;44.40
32753;DHT22;19121;52.428;10.816;2023-06-10T10:43:26;26.60;44.40
32753;DHT22;19121;52.428;10.816;2023-06-10T10:45:57;26.60;44.40
32753;DHT22;19121;52.428;10.816;2023-06-10T10:48:23;26.60;44.40
32753;DHT22;19121;52.428;10.816;2023-06-10T10:50:55;26.60;44.40
32753;DHT22;19121;52.428;10.816;2023-06-10T10:53:21;26.60;44.40
32753;DHT22;19121;52.428;10.816;2023-06-10T10:55:57;26.70;44.40
32753;DHT22;19121;52.428;10.816;2023-06-10T10:58:24;26.60;44.40
32753;DHT22;19121;52.428;10.816;2023-06-10T11:00:50;26.70;44.40
32753;DHT22;19121;52.428;10.816;2023-06-10T11:03:16;26.60;44.40
32753;DHT22;19121;52.428;10.816;2023-06-10T11:05:45;26.70;44.50
32753;DHT22;19121;52.428;10.816;2023-06-10T11:08:59;26.70;44.40
32753;DHT22;19121;52.428;10.816;2023-06-10T11:10:59;26.70;44.50
32753;DHT22;19121;52.428;10.816;2023-06-10T11:13:25;26.70;44.50
32753;DHT22;19121;52.428;10.816;2023-06-10T11:15:51;26.70;44.50
32753;DHT22;19121;52.428;10.816;2023-06-10T11:18:20;26.70;44.40
32753;DHT22;19121;52.428;10.816;2023-06-10T11:26:11;26.70;44.50
32753;DHT22;19121;52.428;10.816;2023-06-10T11:28:37;26.70;44.60
32753;DHT22;19121;52.428;10.816;2023-06-10T11:31:03;26.70;44.50
32753;DHT22;19121;52.428;10.816;2023-06-10T11:33:28;26.70;44.60
32753;DHT22;19121;52.428;10.816;2023-06-10T11:35:54;26.80;44.60
32753;DHT22;19121;52.428;10.816;2023-06-10T11:38:20;26.70;44.60
32753;DHT22;19121;52.428;10.816;2023-06-10T11:40:49;26.80;44.60
32753;DHT22;19121;52.428;10.816;2023-06-10T11:43:16;26.70;45.20
32753;DHT22;19121;52.428;10.816;2023-06-10T11:45:42;26.70;44.50
32753;DHT22;19121;52.428;10.816;2023-06-10T11:48:08;26.70;44.50
32753;DHT22;19121;52.428;10.816;2023-06-10T11:50:34;26.80;44.60
32753;DHT22;19121;52.428;10.816;2023-06-10T11:53:00;26.80;44.60
32753;DHT22;19121;52.428;10.816;2023-06-10T11:55:25;26.80;44.70
32753;DHT22;19121;52.428;10.816;2023-06-10T11:57:51;26.80;44.70
32753;DHT22;19121;52.428;10.816;2023-06-10T12:00:23;26.80;44.70
32753;DHT22;19121;52.428;10.816;2023-06-10T12:02:56;26.80;44.70
32753;DHT22;19121;52.428;10.816;2023-06-10T12:05:22;26.80;44.70
32753;DHT22;19121;52.428;10.816;2023-06-10T12:07:48;26.80;44.60
32753;DHT22;19121;52.428;10.816;2023-06-10T12:10:13;26.80;44.70
32753;DHT22;19121;52.428;10.816;2023-06-10T12:12:39;26.80;44.70
32753;DHT22;19121;52.428;10.816;2023-06-10T12:15:05;26.80;44.70
32753;DHT22;19121;52.428;10.816;2023-06-10T12:20:01;26.80;44.70
32753;DHT22;19121;52.428;10.816;2023-06-10T12:22:43;26.80;44.70
32753;DHT22;19121;52.428;10.816;2023-06-10T12:25:10;26.80;44.80
32753;DHT22;19121;52.428;10.816;2023-06-10T12:27:35;26.90;44.80
32753;DHT22;19121;52.428;10.816;2023-06-10T12:30:02;26.80;44.70
32753;DHT22;19121;52.428;10.816;2023-06-10T12:32:36;26.90;44.80
32753;DHT22;19121;52.428;10.816;2023-06-10T12:35:02;26.80;44.80
32753;DHT22;19121;52.428;10.816;2023-06-10T12:37:29;26.90;44.80
32753;DHT22;19121;52.428;10.816;2023-06-10T12:39:55;26.80;44.80
32753;DHT22;19121;52.428;10.816;2023-06-10T12:42:22;26.90;44.80
32753;DHT22;19121;52.428;10.816;2023-06-10T12:44:52;26.90;44.80
32753;DHT22;19121;52.428;10.816;2023-06-10T12:47:18;26.90;44.80
32753;DHT22;19121;52.428;10.816;2023-06-10T12:49:43;26.90;44.80
32753;DHT22;19121;52.428;10.816;2023-06-10T12:52:09;26.90;44.80
32753;DHT22;19121;52.428;10.816;2023-06-10T12:54:34;26.90;44.80
32753;DHT22;19121;52.428;10.816;2023-06-10T12:56:59;26.90;44.80
32753;DHT22;19121;52.428;10.816;2023-06-10T12:59:26;26.90;44.80
32753;DHT22;19121;52.428;10.816;2023-06-10T13:01:52;26.90;44.80
32753;DHT22;19121;52.428;10.816;2023-06-10T13:04:19;26.90;44.80
32753;DHT22;19121;52.428;10.816;2023-06-10T13:06:45;26.90;44.80
32753;DHT22;19121;52.428;10.816;2023-06-10T13:09:12;26.90;44.80
32753;DHT22;19121;52.428;10.816;2023-06-10T13:11:37;26.90;44.80
32753;DHT22;19121;52.428;10.816;2023-06-10T13:14:04;26.90;44.80
32753;DHT22;19121;52.428;10.816;2023-06-10T13:16:30;26.90;44.80
32753;DHT22;19121;52.428;10.816;2023-06-10T13:18:55;26.90;44.80
32753;DHT22;19121;52.428;10.816;2023-06-10T13:21:21;26.90;44.80
32753;DHT22;19121;52.428;10.816;2023-06-10T13:23:46;27.00;44.80
32753;DHT22;19121;52.428;10.816;2023-06-10T13:26:13;26.90;44.80
32753;DHT22;19121;52.428;10.816;2023-06-10T13:28:38;27.00;44.80
32753;DHT22;19121;52.428;10.816;2023-06-10T13:31:04;26.90;44.80
32753;DHT22;19121;52.428;10.816;2023-06-10T13:33:29;27.00;44.80
32753;DHT22;19121;52.428;10.816;2023-06-10T13:35:55;27.00;44.80
32753;DHT22;19121;52.428;10.816;2023-06-10T13:38:20;27.00;44.80
32753;DHT22;19121;52.428;10.816;2023-06-10T13:40:46;27.00;44.80
32753;DHT22;19121;52.428;10.816;2023-06-10T13:43:11;27.00;44.80
32753;DHT22;19121;52.428;10.816;2023-06-10T13:45:38;27.00;44.80
32753;DHT22;19121;52.428;10.816;2023-06-10T13:48:04;27.00;44.90
32753;DHT22;19121;52.428;10.816;2023-06-10T13:50:31;27.00;44.80
32753;DHT22;19121;52.428;10.816;2023-06-10T13:52:56;27.00;44.90
32753;DHT22;19121;52.428;10.816;2023-06-10T13:55:22;27.00;44.90
32753;DHT22;19121;52.428;10.816;2023-06-10T13:57:49;27.00;44.90
32753;DHT22;19121;52.428;10.816;2023-06-10T14:00:14;27.00;44.80
32753;DHT22;19121;52.428;10.816;2023-06-10T14:02:40;27.00;44.90
32753;DHT22;19121;52.428;10.816;2023-06-10T14:05:05;27.00;44.90
32753;DHT22;19121;52.428;10.816;2023-06-10T14:07:31;27.00;44.90
32753;DHT22;19121;52.428;10.816;2023-06-10T14:09:56;27.00;44.90
32753;DHT22;19121;52.428;10.816;2023-06-10T14:12:22;27.00;44.90
32753;DHT22;19121;52.428;10.816;2023-06-10T14:14:48;27.00;44.90
32753;DHT22;19121;52.428;10.816;2023-06-10T14:17:13;27.00;44.90
32753;DHT22;19121;52.428;10.816;2023-06-10T14:19:39;27.00;44.90
32753;DHT22;19121;52.428;10.816;2023-06-10T14:22:05;27.00;44.90
32753;DHT22;19121;52.428;10.816;2023-06-10T14:24:32;27.00;44.90
32753;DHT22;19121;52.428;10.816;2023-06-10T14:26:58;27.00;44.90
32753;DHT22;19121;52.428;10.816;2023-06-10T14:29:23;27.00;44.90
32753;DHT22;19121;52.428;10.816;2023-06-10T14:31:49;27.10;44.90
32753;DHT22;19121;52.428;10.816;2023-06-10T14:34:14;27.10;45.00
32753;DHT22;19121;52.428;10.816;2023-06-10T14:36:40;27.00;44.80
32753;DHT22;19121;52.428;10.816;2023-06-10T14:39:05;27.00;44.80
32753;DHT22;19121;52.428;10.816;2023-06-10T14:41:31;27.10;44.90
32753;DHT22;19121;52.428;10.816;2023-06-10T14:43:56;27.00;44.80
32753;DHT22;19121;52.428;10.816;2023-06-10T14:46:22;27.00;44.80
32753;DHT22;19121;52.428;10.816;2023-06-10T14:48:47;27.10;44.90
32753;DHT22;19121;52.428;10.816;2023-06-10T14:51:13;27.00;44.80
32753;DHT22;19121;52.428;10.816;2023-06-10T14:53:38;27.00;44.80
32753;DHT22;19121;52.428;10.816;2023-06-10T14:56:04;27.00;44.80
32753;DHT22;19121;52.428;10.816;2023-06-10T14:58:29;27.10;44.90
32753;DHT22;19121;52.428;10.816;2023-06-10T15:00:55;27.10;44.90
32753;DHT22;19121;52.428;10.816;2023-06-10T15:03:20;27.00;44.80
32753;DHT22;19121;52.428;10.816;2023-06-10T15:05:45;27.00;44.80
32753;DHT22;19121;52.428;10.816;2023-06-10T15:08:11;27.00;44.80
32753;DHT22;19121;52.428;10.816;2023-06-10T15:10:36;27.00;44.80
32753;DHT22;19121;52.428;10.816;2023-06-10T15:13:02;27.00;44.80
32753;DHT22;19121;52.428;10.816;2023-06-10T15:15:28;27.00;44.80
32753;DHT22;19121;52.428;10.816;2023-06-10T15:17:53;27.00;44.80
32753;DHT22;19121;52.428;10.816;2023-06-10T15:20:19;27.00;44.80
32753;DHT22;19121;52.428;10.816;2023-06-10T15:22:44;27.00;44.80
32753;DHT22;19121;52.428;10.816;2023-06-10T15:25:10;27.00;44.80